createdAt,value
2023-06-27T00:01:11.253Z,95625.16
2023-06-27T00:03:38.032Z,95638.22
2023-06-27T00:06:04.778Z,95621.97
2023-06-27T00:08:32.280Z,95631.50
2023-06-27T00:10:59.207Z,95631.88
2023-06-27T00:13:25.957Z,95622.00
2023-06-27T00:15:52.709Z,95633.47
2023-06-27T00:18:20.633Z,95635.03
2023-06-27T00:20:47.387Z,95641.34
2023-06-27T00:23:24.756Z,95647.28
2023-06-27T00:25:51.904Z,95651.25
2023-06-27T00:28:18.539Z,95645.31
2023-06-27T00:30:45.229Z,95638.19
2023-06-27T00:33:12.028Z,95649.28
2023-06-27T00:35:40.219Z,95649.66
2023-06-27T00:38:07.619Z,95652.41
2023-06-27T00:40:34.421Z,95644.06
2023-06-27T00:43:01.059Z,95645.25
2023-06-27T00:45:29.649Z,95643.25
2023-06-27T00:47:56.550Z,95646.03
2023-06-27T00:50:26.164Z,95638.88
2023-06-27T00:52:53.149Z,95642.84
2023-06-27T00:55:21.800Z,95647.59
2023-06-27T00:57:48.990Z,95645.19
2023-06-27T01:00:16.489Z,95642.78
2023-06-27T01:09:02.728Z,95657.38
2023-06-27T01:11:39.669Z,95661.72
2023-06-27T01:14:09.854Z,95656.56
2023-06-27T01:16:38.048Z,95668.38
2023-06-27T01:19:09.018Z,95662.41
2023-06-27T01:21:38.039Z,95659.56
2023-06-27T01:24:05.913Z,95669.38
2023-06-27T01:26:33.356Z,95672.06
2023-06-27T01:29:01.049Z,95670.84
2023-06-27T01:31:36.266Z,95677.50
2023-06-27T01:34:29.417Z,95684.16
2023-06-27T01:37:21.048Z,95681.28
2023-06-27T01:40:04.958Z,95684.00
2023-06-27T01:42:37.899Z,95688.69
2023-06-27T01:45:06.161Z,95688.69
2023-06-27T01:47:34.231Z,95685.06
2023-06-27T01:50:01.283Z,95677.53
2023-06-27T01:52:27.962Z,95673.19
2023-06-27T01:54:54.800Z,95669.59
2023-06-27T01:57:21.600Z,95683.78
2023-06-27T01:59:48.307Z,95681.81
2023-06-27T02:02:15.030Z,95679.41
2023-06-27T02:04:41.707Z,95679.00
2023-06-27T02:07:10.601Z,95663.59
2023-06-27T02:09:39.980Z,95661.22
2023-06-27T02:12:07.116Z,95666.75
2023-06-27T02:14:33.771Z,95661.22
2023-06-27T02:17:00.433Z,95657.69
2023-06-27T02:19:27.158Z,95663.19
2023-06-27T02:21:53.986Z,95664.75
2023-06-27T02:24:20.876Z,95663.19
2023-06-27T02:26:47.609Z,95671.88
2023-06-27T02:29:14.552Z,95668.75
2023-06-27T02:31:41.220Z,95673.47
2023-06-27T02:34:07.973Z,95666.75
2023-06-27T02:36:34.806Z,95667.56
2023-06-27T02:39:02.303Z,95673.88
2023-06-27T02:41:29.294Z,95659.28
2023-06-27T02:43:55.972Z,95659.69
2023-06-27T02:46:22.805Z,95660.88
2023-06-27T02:48:49.630Z,95666.00
2023-06-27T02:51:16.268Z,95672.72
2023-06-27T02:53:42.922Z,95671.16
2023-06-27T02:56:09.632Z,95669.59
2023-06-27T02:58:37.568Z,95677.75
2023-06-27T03:01:05.703Z,95667.19
2023-06-27T03:03:35.578Z,95671.53
2023-06-27T03:06:03.485Z,95680.63
2023-06-27T03:08:31.599Z,95682.56
2023-06-27T03:10:58.773Z,95681.00
2023-06-27T03:13:26.465Z,95677.81
2023-06-27T03:15:54.465Z,95679.78
2023-06-27T03:18:21.440Z,95676.63
2023-06-27T03:20:48.279Z,95682.91
2023-06-27T03:23:15.750Z,95686.06
2023-06-27T03:25:42.906Z,95687.66
2023-06-27T03:28:10.831Z,95695.13
2023-06-27T03:30:46.858Z,95697.47
2023-06-27T03:33:16.019Z,95687.63
2023-06-27T03:35:43.333Z,95691.16
2023-06-27T03:38:10.250Z,95692.31
2023-06-27T03:40:36.922Z,95697.44
2023-06-27T03:43:04.035Z,95700.19
2023-06-27T03:45:30.733Z,95698.59
2023-06-27T03:47:57.646Z,95704.13
2023-06-27T03:50:24.485Z,95706.88
2023-06-27T03:52:51.301Z,95705.72
2023-06-27T03:55:18.991Z,95702.50
2023-06-27T03:57:45.705Z,95702.94
2023-06-27T04:00:13.256Z,95704.91
2023-06-27T04:02:42.759Z,95700.50
2023-06-27T04:05:10.209Z,95706.41
2023-06-27T04:07:37.335Z,95696.56
2023-06-27T04:10:07.418Z,95702.47
2023-06-27T04:12:34.293Z,95717.38
2023-06-27T04:15:00.974Z,95717.75
2023-06-27T04:17:27.792Z,95721.28
2023-06-27T04:19:54.647Z,95712.59
2023-06-27T04:22:21.458Z,95715.72
2023-06-27T04:24:48.311Z,95717.28
2023-06-27T04:27:14.989Z,95708.22
2023-06-27T04:29:41.657Z,95704.69
2023-06-27T04:32:08.831Z,95720.44
2023-06-27T04:34:35.487Z,95713.34
2023-06-27T04:37:02.201Z,95707.81
2023-06-27T04:39:28.913Z,95714.91
2023-06-27T04:41:55.618Z,95713.34
2023-06-27T04:44:22.427Z,95718.84
2023-06-27T04:46:49.266Z,95730.69
2023-06-27T04:49:15.925Z,95727.91
2023-06-27T04:51:42.578Z,95729.91
2023-06-27T04:54:09.310Z,95731.06
2023-06-27T04:56:36.042Z,95744.84
2023-06-27T04:59:02.851Z,95751.16
2023-06-27T05:01:29.691Z,95748.78
2023-06-27T05:03:57.453Z,95752.72
2023-06-27T05:06:24.118Z,95762.53
2023-06-27T05:08:50.763Z,95755.44
2023-06-27T05:11:17.571Z,95753.47
2023-06-27T05:13:44.211Z,95761.34
2023-06-27T05:16:11.147Z,95756.97
2023-06-27T05:18:37.828Z,95759.72
2023-06-27T05:21:05.443Z,95745.94
2023-06-27T05:23:32.244Z,95745.16
2023-06-27T05:25:59.373Z,95743.19
2023-06-27T05:28:26.249Z,95751.47
2023-06-27T05:30:53.070Z,95752.69
2023-06-27T05:33:19.954Z,95761.38
2023-06-27T05:35:46.676Z,95760.22
2023-06-27T05:38:13.313Z,95759.03
2023-06-27T05:40:39.980Z,95770.84
2023-06-27T05:43:06.623Z,95767.69
2023-06-27T05:45:33.346Z,95769.69
2023-06-27T05:48:00.259Z,95772.44
2023-06-27T05:50:27.142Z,95756.66
2023-06-27T05:52:53.770Z,95765.72
2023-06-27T05:55:20.999Z,95759.41
2023-06-27T05:57:48.006Z,95752.69
2023-06-27T06:00:15.317Z,95741.28
2023-06-27T06:02:45.918Z,95743.25
2023-06-27T06:05:13.005Z,95763.78
2023-06-27T06:07:45.156Z,95771.69
2023-06-27T06:10:12.768Z,95767.78
2023-06-27T06:12:40.339Z,95770.16
2023-06-27T06:15:07.539Z,95764.19
2023-06-27T06:17:34.359Z,95755.16
2023-06-27T06:20:01.104Z,95745.72
2023-06-27T06:22:27.843Z,95749.72
2023-06-27T06:24:54.726Z,95747.78
2023-06-27T06:27:21.503Z,95758.84
2023-06-27T06:29:48.179Z,95757.34
2023-06-27T06:32:15.007Z,95760.16
2023-06-27T06:34:41.672Z,95760.94
2023-06-27T06:37:08.322Z,95765.72
2023-06-27T06:39:36.638Z,95756.63
2023-06-27T06:42:03.706Z,95763.72
2023-06-27T06:44:32.608Z,95766.50
2023-06-27T06:46:59.462Z,95766.50
2023-06-27T06:49:26.332Z,95753.06
2023-06-27T06:51:52.968Z,95765.31
2023-06-27T06:54:19.756Z,95774.38
2023-06-27T06:56:46.387Z,95773.19
2023-06-27T06:59:13.026Z,95777.53
2023-06-27T07:01:39.912Z,95780.69
2023-06-27T07:04:06.795Z,95782.31
2023-06-27T07:06:36.388Z,95783.53
2023-06-27T07:09:03.152Z,95776.06
2023-06-27T07:11:29.983Z,95778.06
2023-06-27T07:13:56.696Z,95772.16
2023-06-27T07:16:23.536Z,95769.41
2023-06-27T07:18:50.194Z,95781.25
2023-06-27T07:21:16.935Z,95782.44
2023-06-27T07:23:43.707Z,95775.75
2023-06-27T07:26:10.350Z,95775.34
2023-06-27T07:28:37.281Z,95773.75
2023-06-27T07:31:04.206Z,95769.84
2023-06-27T07:33:30.929Z,95773.84
2023-06-27T07:35:57.557Z,95765.19
2023-06-27T07:38:24.212Z,95758.53
2023-06-27T07:40:51.527Z,95737.66
2023-06-27T07:43:20.810Z,95745.19
2023-06-27T07:45:47.471Z,95746.03
2023-06-27T07:48:14.256Z,95759.53
2023-06-27T07:50:41.144Z,95757.22
2023-06-27T07:53:08.107Z,95752.94
2023-06-27T07:55:34.811Z,95755.75
2023-06-27T07:58:01.529Z,95745.91
2023-06-27T08:00:28.163Z,95747.16
2023-06-27T08:02:55.185Z,95750.00
2023-06-27T08:05:21.978Z,95752.44
2023-06-27T08:07:48.691Z,95742.19
2023-06-27T08:10:15.889Z,95755.25
2023-06-27T08:12:42.688Z,95741.84
2023-06-27T08:15:09.792Z,95737.94
2023-06-27T08:17:36.596Z,95741.53
2023-06-27T08:20:03.486Z,95745.06
2023-06-27T08:22:33.537Z,95747.84
2023-06-27T08:25:00.239Z,95747.84
2023-06-27T08:27:26.854Z,95747.06
2023-06-27T08:29:53.520Z,95738.38
2023-06-27T08:32:20.144Z,95745.91
2023-06-27T08:34:47.177Z,95746.38
2023-06-27T08:37:13.800Z,95742.09
2023-06-27T08:39:40.910Z,95748.81
2023-06-27T08:42:08.025Z,95742.50
2023-06-27T08:44:34.735Z,95726.75
2023-06-27T08:47:04.041Z,95730.75
2023-06-27T08:49:34.136Z,95739.50
2023-06-27T08:52:02.902Z,95726.44
2023-06-27T08:54:35.666Z,95726.06
2023-06-27T08:57:05.093Z,95733.97
2023-06-27T08:59:36.446Z,95727.69
2023-06-27T09:02:04.924Z,95729.69
2023-06-27T09:04:36.496Z,95732.44
2023-06-27T09:07:05.159Z,95726.13
2023-06-27T09:09:32.165Z,95717.00
2023-06-27T09:12:03.512Z,95717.00
2023-06-27T09:14:30.544Z,95720.56
2023-06-27T09:16:57.342Z,95712.63
2023-06-27T09:19:24.127Z,95715.78
2023-06-27T09:21:51.608Z,95709.84
2023-06-27T09:24:25.156Z,95719.38
2023-06-27T09:26:51.818Z,95718.19
2023-06-27T09:29:18.487Z,95721.72
2023-06-27T09:31:45.416Z,95714.59
2023-06-27T09:34:12.152Z,95718.56
2023-06-27T09:39:11.546Z,95715.00
2023-06-27T09:41:40.888Z,95719.75
2023-06-27T09:44:11.697Z,95710.25
2023-06-27T09:46:38.388Z,95713.00
2023-06-27T09:49:09.617Z,95720.53
2023-06-27T09:51:36.843Z,95715.78
2023-06-27T09:54:03.973Z,95707.09
2023-06-27T09:56:31.931Z,95705.91
2023-06-27T10:01:54.101Z,95686.50
2023-06-27T10:04:34.418Z,95694.41
2023-06-27T10:07:06.470Z,95693.56
2023-06-27T10:09:33.043Z,95695.13
2023-06-27T10:12:00.456Z,95690.75
2023-06-27T10:14:27.849Z,95687.16
2023-06-27T10:16:54.971Z,95692.25
2023-06-27T10:19:21.756Z,95686.25
2023-06-27T10:21:48.363Z,95686.19
2023-06-27T10:24:15.927Z,95679.78
2023-06-27T10:26:50.080Z,95682.94
2023-06-27T10:29:16.698Z,95670.63
2023-06-27T10:31:44.164Z,95676.91
2023-06-27T10:34:11.715Z,95669.66
2023-06-27T10:36:51.635Z,95668.44
2023-06-27T10:39:34.447Z,95666.78
2023-06-27T10:42:13.009Z,95661.16
2023-06-27T10:44:57.938Z,95675.03
2023-06-27T10:47:24.955Z,95669.38
2023-06-27T10:49:54.021Z,95672.16
2023-06-27T10:52:21.605Z,95663.09
2023-06-27T10:55:08.160Z,95661.88
2023-06-27T10:57:38.578Z,95657.09
2023-06-27T11:00:17.347Z,95659.88
2023-06-27T11:02:44.829Z,95663.41
2023-06-27T11:05:11.875Z,95654.66
2023-06-27T11:07:38.883Z,95663.00
2023-06-27T11:10:23.999Z,95669.63
2023-06-27T11:12:51.306Z,95665.63
2023-06-27T11:15:21.085Z,95664.94
2023-06-27T11:17:47.835Z,95665.78
2023-06-27T11:20:14.572Z,95661.75
2023-06-27T11:22:41.366Z,95658.63
2023-06-27T11:25:12.251Z,95658.16
2023-06-27T11:27:39.044Z,95654.28
2023-06-27T11:30:06.025Z,95655.13
2023-06-27T11:32:33.206Z,95656.72
2023-06-27T11:35:00.173Z,95658.66
2023-06-27T11:37:27.216Z,95652.34
2023-06-27T11:39:54.724Z,95648.00
2023-06-27T11:42:34.053Z,95647.28
2023-06-27T11:45:01.037Z,95653.59
2023-06-27T11:47:27.717Z,95650.00
2023-06-27T11:49:54.471Z,95639.66
2023-06-27T11:52:21.095Z,95647.94
2023-06-27T11:54:50.883Z,95645.50
2023-06-27T11:57:17.521Z,95638.63
2023-06-27T11:59:44.668Z,95638.53
2023-06-27T12:02:11.492Z,95641.59
2023-06-27T12:04:38.091Z,95635.34
2023-06-27T12:07:17.735Z,95632.16
2023-06-27T12:09:44.435Z,95623.00
2023-06-27T12:12:11.155Z,95628.16
2023-06-27T12:14:37.702Z,95615.72
2023-06-27T12:17:04.425Z,95619.22
2023-06-27T12:19:30.972Z,95609.56
2023-06-27T12:21:57.686Z,95603.91
2023-06-27T12:24:24.303Z,95603.88
2023-06-27T12:26:51.020Z,95600.22
2023-06-27T12:29:19.982Z,95600.81
2023-06-27T12:31:47.040Z,95601.16
2023-06-27T12:34:13.751Z,95613.84
2023-06-27T12:36:40.539Z,95604.34
2023-06-27T12:39:07.082Z,95602.50
2023-06-27T12:41:33.857Z,95600.50
2023-06-27T12:44:00.457Z,95611.22
2023-06-27T12:46:27.192Z,95601.09
2023-06-27T12:48:53.774Z,95603.31
2023-06-27T12:51:21.360Z,95607.41
2023-06-27T12:53:48.886Z,95607.88
2023-06-27T12:56:15.941Z,95599.13
2023-06-27T12:58:42.522Z,95597.63
2023-06-27T13:01:11.139Z,95601.22
2023-06-27T13:03:38.088Z,95598.84
2023-06-27T13:06:04.819Z,95597.63
2023-06-27T13:08:31.431Z,95588.06
2023-06-27T13:10:58.131Z,95593.97
2023-06-27T13:13:24.773Z,95586.72
2023-06-27T13:16:04.453Z,95575.16
2023-06-27T13:18:38.102Z,95571.06
2023-06-27T13:21:04.947Z,95570.09
2023-06-27T13:23:31.545Z,95569.50
2023-06-27T13:25:58.280Z,95573.88
2023-06-27T13:28:24.925Z,95567.66
2023-06-27T13:30:51.509Z,95563.66
2023-06-27T13:33:18.128Z,95560.00
2023-06-27T13:35:44.701Z,95551.88
2023-06-27T13:38:11.217Z,95544.50
2023-06-27T13:40:37.808Z,95546.13
2023-06-27T13:43:04.407Z,95546.75
2023-06-27T13:45:30.974Z,95557.41
2023-06-27T13:47:57.786Z,95564.91
2023-06-27T13:50:24.531Z,95544.31
2023-06-27T13:52:51.076Z,95545.06
2023-06-27T13:55:20.777Z,95548.19
2023-06-27T13:57:47.404Z,95544.59
2023-06-27T14:00:14.266Z,95541.53
2023-06-27T14:02:41.068Z,95532.84
2023-06-27T14:05:26.637Z,95546.56
2023-06-27T14:07:53.399Z,95543.38
2023-06-27T14:10:20.443Z,95538.25
2023-06-27T14:12:47.104Z,95533.59
2023-06-27T14:15:13.648Z,95535.09
2023-06-27T14:17:40.333Z,95531.22
2023-06-27T14:20:07.314Z,95536.47
2023-06-27T14:22:33.855Z,95542.47
2023-06-27T14:25:00.557Z,95540.06
2023-06-27T14:27:27.140Z,95541.00
2023-06-27T14:29:53.721Z,95538.19
2023-06-27T14:32:20.491Z,95527.91
2023-06-27T14:34:47.206Z,95525.47
2023-06-27T14:37:13.954Z,95530.34
2023-06-27T14:39:40.507Z,95530.16
2023-06-27T14:42:07.221Z,95525.75
2023-06-27T14:44:34.603Z,95535.78
2023-06-27T14:47:01.448Z,95531.56
2023-06-27T14:49:28.109Z,95529.25
2023-06-27T14:51:54.779Z,95517.84
2023-06-27T14:54:21.449Z,95521.88
2023-06-27T14:56:48.079Z,95516.97
2023-06-27T14:59:14.713Z,95516.09
2023-06-27T15:01:41.718Z,95505.19
2023-06-27T15:04:08.519Z,95501.72
2023-06-27T15:06:35.273Z,95502.84
2023-06-27T15:09:01.903Z,95507.28
2023-06-27T15:11:28.545Z,95503.69
2023-06-27T15:13:55.185Z,95513.75
2023-06-27T15:16:21.737Z,95515.06
2023-06-27T15:18:50.560Z,95507.53
2023-06-27T15:21:17.700Z,95507.09
2023-06-27T15:23:45.374Z,95505.41
2023-06-27T15:26:11.928Z,95506.97
2023-06-27T15:28:38.676Z,95505.41
2023-06-27T15:31:05.316Z,95518.53
2023-06-27T15:33:32.096Z,95509.69
2023-06-27T15:35:58.707Z,95504.06
2023-06-27T15:38:25.241Z,95495.72
2023-06-27T15:40:51.839Z,95494.91
2023-06-27T15:43:18.403Z,95501.25
2023-06-27T15:45:45.134Z,95501.28
2023-06-27T15:48:11.733Z,95499.41
2023-06-27T15:50:38.464Z,95496.63
2023-06-27T15:53:05.193Z,95492.94
2023-06-27T15:55:33.429Z,95487.75
2023-06-27T15:58:01.916Z,95489.94
2023-06-27T16:00:28.418Z,95489.94
2023-06-27T16:02:55.210Z,95489.13
2023-06-27T16:05:22.015Z,95489.97
2023-06-27T16:07:48.677Z,95490.53
2023-06-27T16:10:15.288Z,95488.97
2023-06-27T16:12:42.035Z,95482.09
2023-06-27T16:15:08.884Z,95488.06
2023-06-27T16:17:35.444Z,95492.28
2023-06-27T16:20:02.452Z,95492.28
2023-06-27T16:22:29.031Z,95487.00
2023-06-27T16:24:55.576Z,95482.94
2023-06-27T16:27:22.281Z,95490.16
2023-06-27T16:29:48.822Z,95490.28
2023-06-27T16:32:15.440Z,95482.53
2023-06-27T16:34:42.006Z,95490.00
2023-06-27T16:37:08.841Z,95482.41
2023-06-27T16:39:36.162Z,95481.09
2023-06-27T16:42:02.831Z,95476.59
2023-06-27T16:44:29.403Z,95478.47
2023-06-27T16:46:56.067Z,95487.44
2023-06-27T16:49:22.637Z,95486.75
2023-06-27T16:51:49.296Z,95483.28
2023-06-27T16:54:16.397Z,95483.81
2023-06-27T16:56:43.005Z,95483.16
2023-06-27T16:59:09.573Z,95490.81
2023-06-27T17:01:36.208Z,95491.31
2023-06-27T17:04:02.892Z,95484.66
2023-06-27T17:06:29.853Z,95485.53
2023-06-27T17:08:56.436Z,95492.34
2023-06-27T17:11:23.034Z,95497.16
2023-06-27T17:13:49.700Z,95499.16
2023-06-27T17:16:16.456Z,95501.56
2023-06-27T17:18:43.246Z,95495.63
2023-06-27T17:21:09.869Z,95492.84
2023-06-27T17:23:36.555Z,95499.25
2023-06-27T17:26:03.169Z,95502.50
2023-06-27T17:28:29.942Z,95494.59
2023-06-27T17:30:56.635Z,95500.97
2023-06-27T17:33:23.410Z,95495.44
2023-06-27T17:35:49.934Z,95508.13
2023-06-27T17:38:16.587Z,95503.00
2023-06-27T17:40:43.150Z,95511.72
2023-06-27T17:43:09.671Z,95506.59
2023-06-27T17:45:36.625Z,95510.56
2023-06-27T17:48:03.267Z,95497.53
2023-06-27T17:50:29.830Z,95501.13
2023-06-27T17:52:56.405Z,95496.41
2023-06-27T17:55:23.013Z,95490.06
2023-06-27T17:57:49.584Z,95500.00
2023-06-27T18:00:16.333Z,95485.38
2023-06-27T18:02:43.180Z,95486.56
2023-06-27T18:05:10.103Z,95494.09
2023-06-27T18:07:39.023Z,95494.09
2023-06-27T18:10:07.322Z,95489.38
2023-06-27T18:12:34.075Z,95484.25
2023-06-27T18:15:01.139Z,95485.03
2023-06-27T18:17:27.847Z,95485.84
2023-06-27T18:19:55.255Z,95483.88
2023-06-27T18:22:24.146Z,95487.44
2023-06-27T18:24:52.620Z,95491.00
2023-06-27T18:27:19.244Z,95487.44
2023-06-27T18:29:45.855Z,95491.03
2023-06-27T18:32:13.610Z,95487.84
2023-06-27T18:34:40.190Z,95491.00
2023-06-27T18:37:06.790Z,95486.66
2023-06-27T18:39:33.375Z,95485.88
2023-06-27T18:41:59.935Z,95486.66
2023-06-27T18:44:26.657Z,95487.84
2023-06-27T18:46:53.176Z,95477.97
2023-06-27T18:49:19.894Z,95486.69
2023-06-27T18:51:46.444Z,95479.16
2023-06-27T18:54:13.050Z,95476.78
2023-06-27T18:56:39.619Z,95477.56
2023-06-27T18:59:06.296Z,95474.41
2023-06-27T19:01:32.888Z,95476.41
2023-06-27T19:03:59.571Z,95487.88
2023-06-27T19:06:30.026Z,95475.63
2023-06-27T19:08:56.918Z,95482.31
2023-06-27T19:11:23.596Z,95476.41
2023-06-27T19:13:50.156Z,95477.97
2023-06-27T19:16:17.206Z,95481.97
2023-06-27T19:18:44.294Z,95473.28
2023-06-27T19:21:14.288Z,95476.84
2023-06-27T19:23:40.856Z,95476.41
2023-06-27T19:26:07.434Z,95480.78
2023-06-27T19:28:34.200Z,95487.13
2023-06-27T19:31:00.785Z,95489.88
2023-06-27T19:33:27.407Z,95500.97
2023-06-27T19:35:53.942Z,95503.75
2023-06-27T19:38:20.607Z,95505.69
2023-06-27T19:40:47.158Z,95495.00
2023-06-27T19:43:13.879Z,95497.78
2023-06-27T19:45:40.591Z,95502.94
2023-06-27T19:48:07.732Z,95505.66
2023-06-27T19:50:34.353Z,95506.47
2023-06-27T19:53:00.974Z,95500.53
2023-06-27T19:55:27.610Z,95509.63
2023-06-27T19:57:54.304Z,95510.84
2023-06-27T20:00:21.133Z,95512.41
2023-06-27T20:02:47.813Z,95510.81
2023-06-27T20:05:14.450Z,95512.00
2023-06-27T20:07:41.139Z,95511.19
2023-06-27T20:10:11.473Z,95509.63
2023-06-27T20:12:38.076Z,95510.81
2023-06-27T20:15:04.858Z,95506.06
2023-06-27T20:17:31.448Z,95511.19
2023-06-27T20:19:58.122Z,95506.06
2023-06-27T20:22:24.797Z,95510.00
2023-06-27T20:24:51.610Z,95509.63
2023-06-27T20:27:18.168Z,95505.66
2023-06-27T20:29:44.770Z,95512.38
2023-06-27T20:32:11.540Z,95510.00
2023-06-27T20:34:38.061Z,95511.19
2023-06-27T20:37:04.905Z,95511.56
2023-06-27T20:39:31.583Z,95509.19
2023-06-27T20:41:58.369Z,95503.66
2023-06-27T20:44:24.949Z,95513.16
2023-06-27T20:46:51.579Z,95505.25
2023-06-27T20:49:21.507Z,95502.50
2023-06-27T20:51:48.242Z,95513.94
2023-06-27T20:54:14.892Z,95509.59
2023-06-27T20:56:41.879Z,95507.63
2023-06-27T20:59:08.567Z,95502.88
2023-06-27T21:01:35.154Z,95501.28
2023-06-27T21:04:01.882Z,95504.06
2023-06-27T21:06:28.452Z,95497.34
2023-06-27T21:08:54.981Z,95494.19
2023-06-27T21:11:21.596Z,95494.97
2023-06-27T21:13:48.271Z,95496.94
2023-06-27T21:16:14.938Z,95510.00
2023-06-27T21:18:41.499Z,95502.88
2023-06-27T21:21:08.160Z,95500.50
2023-06-27T21:23:34.838Z,95502.88
2023-06-27T21:26:01.623Z,95514.69
2023-06-27T21:28:28.732Z,95506.41
2023-06-27T21:30:55.442Z,95498.47
2023-06-27T21:33:22.042Z,95492.56
2023-06-27T21:35:48.938Z,95492.53
2023-06-27T21:38:15.476Z,95502.38
2023-06-27T21:40:42.258Z,95498.81
2023-06-27T21:43:09.479Z,95512.63
2023-06-27T21:45:36.132Z,95517.34
2023-06-27T21:48:02.702Z,95515.38
2023-06-27T21:50:30.217Z,95508.63
2023-06-27T21:52:57.226Z,95504.69
2023-06-27T21:55:23.825Z,95505.09
2023-06-27T21:57:50.548Z,95498.75
2023-06-27T22:00:17.365Z,95497.97
2023-06-27T22:02:44.801Z,95495.59
2023-06-27T22:05:11.881Z,95502.66
2023-06-27T22:07:38.766Z,95510.53
2023-06-27T22:10:05.655Z,95518.78
2023-06-27T22:12:32.387Z,95519.19
2023-06-27T22:14:59.346Z,95514.03
2023-06-27T22:17:26.466Z,95512.03
2023-06-27T22:19:53.067Z,95521.47
2023-06-27T22:22:19.608Z,95518.28
2023-06-27T22:24:46.274Z,95522.63
2023-06-27T22:27:12.875Z,95525.69
2023-06-27T22:29:39.470Z,95521.75
2023-06-27T22:32:06.278Z,95506.72
2023-06-27T22:34:32.859Z,95505.13
2023-06-27T22:36:59.548Z,95507.09
2023-06-27T22:39:26.092Z,95502.72
2023-06-27T22:41:52.825Z,95497.59
2023-06-27T22:44:19.474Z,95509.41
2023-06-27T22:46:46.102Z,95514.13
2023-06-27T22:49:12.713Z,95504.63
2023-06-27T22:51:39.373Z,95503.03
2023-06-27T22:54:06.147Z,95508.16
2023-06-27T22:56:32.834Z,95499.47
2023-06-27T22:58:59.422Z,95493.53
2023-06-27T23:01:26.266Z,95501.84
2023-06-27T23:03:55.901Z,95501.81
2023-06-27T23:06:22.698Z,95498.63
2023-06-27T23:08:49.429Z,95511.50
2023-06-27T23:11:16.009Z,95518.56
2023-06-27T23:13:42.688Z,95510.22
2023-06-27T23:16:09.359Z,95514.94
2023-06-27T23:18:35.925Z,95523.59
2023-06-27T23:21:02.573Z,95508.59
2023-06-27T23:23:29.712Z,95512.50
2023-06-27T23:25:56.564Z,95513.25
2023-06-27T23:28:23.306Z,95525.44
2023-06-27T23:30:50.281Z,95512.03
2023-06-27T23:33:17.008Z,95497.81
2023-06-27T23:35:43.524Z,95497.81
2023-06-27T23:38:10.144Z,95502.94
2023-06-27T23:40:36.728Z,95517.09
2023-06-27T23:43:03.287Z,95526.13
2023-06-27T23:45:29.883Z,95522.19
2023-06-27T23:47:56.592Z,95510.72
2023-06-27T23:50:23.242Z,95502.44
2023-06-27T23:52:49.938Z,95522.13
2023-06-27T23:55:17.260Z,95545.75
2023-06-27T23:57:43.904Z,95539.38
